Crossroads Center, Iowa
Current Conditions -  °F | °C
As of 3:55 PM on Tuesday 25 Nov 2014 (Local Time) from KFOD Reporting Station
Clear Clear  
Wind Chill: -4°   Ceiling: Unl
Heat Index:   Visibility: 10mi
Dew Point: -12°   Wind: 7mph
Humidity: 41%   Direction: 170°S
Pressure: 30.02"   Gusts: NA
Location:  42.5075°N, 94.2531°W
Report Text: KFOD 252155Z AUTO 17006KT 10SM CLR 00/M12 A3002 RMK AO1
Loading
Personal Weather Stations






























Interactive Weather Map New forecast layout! Learn more

10-Day Weather Forecast

Advertisements
Track Severe Weather on mobile